sensor_id;sensor_type;location;lat;lon;timestamp;pressure;altitude;pressure_sealevel;temperature;humidity
1472;BME280;963;42.644;23.336;2022-12-18T00:00:46;94912.78;;;9.95;75.48
1472;BME280;963;42.644;23.336;2022-12-18T00:03:14;94910.09;;;9.80;75.84
1472;BME280;963;42.644;23.336;2022-12-18T00:05:48;94916.22;;;9.84;75.25
1472;BME280;963;42.644;23.336;2022-12-18T00:08:14;94910.91;;;9.68;76.13
1472;BME280;963;42.644;23.336;2022-12-18T00:10:39;94902.78;;;9.61;75.81
1472;BME280;963;42.644;23.336;2022-12-18T00:13:05;94910.91;;;9.56;76.11
1472;BME280;963;42.644;23.336;2022-12-18T00:15:30;94927.53;;;9.60;75.56
1472;BME280;963;42.644;23.336;2022-12-18T00:17:55;94921.06;;;9.57;74.98
1472;BME280;963;42.644;23.336;2022-12-18T00:20:21;94930.28;;;9.51;75.34
1472;BME280;963;42.644;23.336;2022-12-18T00:22:51;94932.47;;;9.49;75.25
1472;BME280;963;42.644;23.336;2022-12-18T00:25:17;94942.53;;;9.47;75.35
1472;BME280;963;42.644;23.336;2022-12-18T00:27:42;94928.75;;;9.38;75.11
1472;BME280;963;42.644;23.336;2022-12-18T00:30:08;94960.03;;;9.43;75.68
1472;BME280;963;42.644;23.336;2022-12-18T00:32:33;94939.03;;;9.31;75.76
1472;BME280;963;42.644;23.336;2022-12-18T00:34:59;94943.38;;;9.27;76.04
1472;BME280;963;42.644;23.336;2022-12-18T00:37:24;94943.06;;;9.28;75.86
1472;BME280;963;42.644;23.336;2022-12-18T00:39:50;94950.16;;;9.28;75.94
1472;BME280;963;42.644;23.336;2022-12-18T00:42:15;94964.06;;;9.28;75.75
1472;BME280;963;42.644;23.336;2022-12-18T00:44:59;94951.91;;;9.24;75.63
1472;BME280;963;42.644;23.336;2022-12-18T00:47:24;94950.38;;;9.23;75.76
1472;BME280;963;42.644;23.336;2022-12-18T00:49:50;94954.88;;;9.22;75.72
1472;BME280;963;42.644;23.336;2022-12-18T00:52:15;94952.47;;;9.17;75.60
1472;BME280;963;42.644;23.336;2022-12-18T00:54:41;94972.59;;;9.13;75.73
1472;BME280;963;42.644;23.336;2022-12-18T00:57:06;94966.56;;;9.13;75.92
1472;BME280;963;42.644;23.336;2022-12-18T00:59:31;94960.88;;;9.11;75.83
1472;BME280;963;42.644;23.336;2022-12-18T01:01:57;94961.44;;;9.04;76.08
1472;BME280;963;42.644;23.336;2022-12-18T01:04:22;94954.97;;;9.01;76.16
1472;BME280;963;42.644;23.336;2022-12-18T01:06:48;94966.69;;;9.04;75.68
1472;BME280;963;42.644;23.336;2022-12-18T01:09:13;94969.63;;;9.02;75.55
1472;BME280;963;42.644;23.336;2022-12-18T01:11:39;94978.81;;;8.96;75.60
1472;BME280;963;42.644;23.336;2022-12-18T01:14:04;94973.44;;;8.93;75.72
1472;BME280;963;42.644;23.336;2022-12-18T01:16:30;94986.22;;;8.94;75.51
1472;BME280;963;42.644;23.336;2022-12-18T01:18:55;94984.75;;;8.85;75.96
1472;BME280;963;42.644;23.336;2022-12-18T01:21:22;94973.72;;;8.79;75.77
1472;BME280;963;42.644;23.336;2022-12-18T01:23:51;94980.50;;;8.80;75.77
1472;BME280;963;42.644;23.336;2022-12-18T01:26:17;94982.22;;;8.76;75.59
1472;BME280;963;42.644;23.336;2022-12-18T01:28:43;94985.75;;;8.80;75.71
1472;BME280;963;42.644;23.336;2022-12-18T01:31:20;94982.13;;;8.72;74.94
1472;BME280;963;42.644;23.336;2022-12-18T01:33:46;94994.66;;;8.67;74.85
1472;BME280;963;42.644;23.336;2022-12-18T01:36:20;94983.84;;;8.68;74.79
1472;BME280;963;42.644;23.336;2022-12-18T01:38:46;95008.75;;;8.62;75.18
1472;BME280;963;42.644;23.336;2022-12-18T01:41:12;94993.78;;;8.63;74.32
1472;BME280;963;42.644;23.336;2022-12-18T01:43:51;95003.72;;;8.57;74.59
1472;BME280;963;42.644;23.336;2022-12-18T01:46:18;94997.53;;;8.53;73.96
1472;BME280;963;42.644;23.336;2022-12-18T01:48:47;95009.66;;;8.45;74.15
1472;BME280;963;42.644;23.336;2022-12-18T01:51:13;95002.16;;;8.35;75.17
1472;BME280;963;42.644;23.336;2022-12-18T01:53:41;95004.16;;;8.38;74.84
1472;BME280;963;42.644;23.336;2022-12-18T01:56:07;95003.72;;;8.36;74.54
1472;BME280;963;42.644;23.336;2022-12-18T02:01:12;95001.91;;;8.28;74.63
1472;BME280;963;42.644;23.336;2022-12-18T02:03:41;95005.47;;;8.24;74.89
1472;BME280;963;42.644;23.336;2022-12-18T02:06:12;95006.34;;;8.07;75.09
1472;BME280;963;42.644;23.336;2022-12-18T02:14:17;95017.63;;;8.28;74.05
1472;BME280;963;42.644;23.336;2022-12-18T02:17:07;95026.44;;;8.24;74.63
1472;BME280;963;42.644;23.336;2022-12-18T02:27:39;95028.63;;;8.22;74.91
1472;BME280;963;42.644;23.336;2022-12-18T02:30:07;95033.09;;;8.21;74.96
1472;BME280;963;42.644;23.336;2022-12-18T02:32:40;95036.88;;;8.03;75.54
1472;BME280;963;42.644;23.336;2022-12-18T02:35:11;95031.28;;;8.13;74.66
1472;BME280;963;42.644;23.336;2022-12-18T02:37:39;95046.53;;;8.11;75.01
1472;BME280;963;42.644;23.336;2022-12-18T02:40:06;95051.06;;;8.02;75.20
1472;BME280;963;42.644;23.336;2022-12-18T02:42:32;95039.06;;;8.01;74.96
1472;BME280;963;42.644;23.336;2022-12-18T02:44:58;95044.31;;;8.01;74.72
1472;BME280;963;42.644;23.336;2022-12-18T02:47:35;95043.41;;;7.97;75.14
1472;BME280;963;42.644;23.336;2022-12-18T03:00:44;95048.72;;;7.79;75.39
1472;BME280;963;42.644;23.336;2022-12-18T03:06:11;95049.47;;;7.80;74.68
1472;BME280;963;42.644;23.336;2022-12-18T03:08:43;95062.88;;;7.78;74.89
1472;BME280;963;42.644;23.336;2022-12-18T03:11:12;95053.69;;;7.72;74.60
1472;BME280;963;42.644;23.336;2022-12-18T03:13:51;95080.03;;;7.67;74.75
1472;BME280;963;42.644;23.336;2022-12-18T03:16:27;95063.44;;;7.63;75.36
1472;BME280;963;42.644;23.336;2022-12-18T03:18:56;95066.03;;;7.63;75.22
1472;BME280;963;42.644;23.336;2022-12-18T03:21:29;95062.06;;;7.57;75.32
1472;BME280;963;42.644;23.336;2022-12-18T03:23:58;95065.78;;;7.56;75.39
1472;BME280;963;42.644;23.336;2022-12-18T03:26:25;95072.81;;;7.64;75.55
1472;BME280;963;42.644;23.336;2022-12-18T03:28:56;95056.56;;;7.50;75.34
1472;BME280;963;42.644;23.336;2022-12-18T03:31:23;95071.34;;;7.46;76.06
1472;BME280;963;42.644;23.336;2022-12-18T03:33:56;95073.81;;;7.51;76.01
1472;BME280;963;42.644;23.336;2022-12-18T03:36:23;95075.19;;;7.48;75.49
1472;BME280;963;42.644;23.336;2022-12-18T03:38:49;95088.44;;;7.52;75.90
1472;BME280;963;42.644;23.336;2022-12-18T03:41:19;95081.53;;;7.39;75.99
1472;BME280;963;42.644;23.336;2022-12-18T03:46:46;95093.22;;;7.50;75.55
1472;BME280;963;42.644;23.336;2022-12-18T03:49:58;95107.78;;;7.60;74.31
1472;BME280;963;42.644;23.336;2022-12-18T03:52:30;95113.94;;;7.64;74.57
1472;BME280;963;42.644;23.336;2022-12-18T03:54:58;95114.28;;;7.53;73.99
1472;BME280;963;42.644;23.336;2022-12-18T03:57:28;95122.59;;;7.56;73.56
1472;BME280;963;42.644;23.336;2022-12-18T03:59:57;95117.69;;;7.45;73.76
1472;BME280;963;42.644;23.336;2022-12-18T04:02:24;95109.81;;;7.54;73.26
1472;BME280;963;42.644;23.336;2022-12-18T04:04:53;95107.78;;;7.60;73.13
1472;BME280;963;42.644;23.336;2022-12-18T04:07:20;95119.06;;;7.51;73.14
1472;BME280;963;42.644;23.336;2022-12-18T04:09:48;95134.63;;;7.48;73.43
1472;BME280;963;42.644;23.336;2022-12-18T04:12:14;95106.47;;;7.45;73.78
1472;BME280;963;42.644;23.336;2022-12-18T04:14:40;95123.84;;;7.49;73.55
1472;BME280;963;42.644;23.336;2022-12-18T04:17:05;95128.47;;;7.44;72.91
1472;BME280;963;42.644;23.336;2022-12-18T04:19:30;95147.09;;;7.34;73.58
1472;BME280;963;42.644;23.336;2022-12-18T04:21:56;95128.47;;;7.44;72.74
1472;BME280;963;42.644;23.336;2022-12-18T04:24:21;95137.41;;;7.34;72.82
1472;BME280;963;42.644;23.336;2022-12-18T04:26:47;95142.16;;;7.41;72.25
1472;BME280;963;42.644;23.336;2022-12-18T04:29:12;95144.66;;;7.46;71.98
1472;BME280;963;42.644;23.336;2022-12-18T04:31:38;95130.31;;;7.35;72.04
1472;BME280;963;42.644;23.336;2022-12-18T04:34:03;95146.81;;;7.44;72.02
1472;BME280;963;42.644;23.336;2022-12-18T04:36:29;95176.19;;;7.49;71.06
1472;BME280;963;42.644;23.336;2022-12-18T04:38:54;95174.50;;;7.45;71.43
1472;BME280;963;42.644;23.336;2022-12-18T04:41:20;95164.34;;;7.43;70.70
1472;BME280;963;42.644;23.336;2022-12-18T04:43:45;95169.56;;;7.52;71.22
1472;BME280;963;42.644;23.336;2022-12-18T04:46:11;95193.75;;;7.40;70.71
1472;BME280;963;42.644;23.336;2022-12-18T04:48:37;95176.38;;;7.18;71.33
1472;BME280;963;42.644;23.336;2022-12-18T04:51:03;95180.66;;;7.32;70.92
1472;BME280;963;42.644;23.336;2022-12-18T04:53:28;95189.91;;;7.29;70.74
1472;BME280;963;42.644;23.336;2022-12-18T04:56:14;95181.91;;;7.26;70.59
1472;BME280;963;42.644;23.336;2022-12-18T04:58:41;95193.91;;;7.27;70.68
1472;BME280;963;42.644;23.336;2022-12-18T05:01:08;95213.00;;;7.27;70.27
1472;BME280;963;42.644;23.336;2022-12-18T05:03:34;95191.75;;;7.29;69.93
1472;BME280;963;42.644;23.336;2022-12-18T05:06:00;95194.22;;;7.16;69.91
1472;BME280;963;42.644;23.336;2022-12-18T05:08:26;95208.38;;;7.33;70.02
1472;BME280;963;42.644;23.336;2022-12-18T05:11:18;95197.28;;;7.36;69.80
1472;BME280;963;42.644;23.336;2022-12-18T05:13:44;95198.22;;;7.22;69.59
1472;BME280;963;42.644;23.336;2022-12-18T05:16:10;95208.84;;;7.17;70.08
1472;BME280;963;42.644;23.336;2022-12-18T05:18:36;95205.75;;;7.24;69.68
1472;BME280;963;42.644;23.336;2022-12-18T05:21:02;95219.16;;;7.22;69.15
1472;BME280;963;42.644;23.336;2022-12-18T05:23:28;95191.16;;;7.14;69.32
1472;BME280;963;42.644;23.336;2022-12-18T05:26:02;95216.09;;;7.20;69.30
1472;BME280;963;42.644;23.336;2022-12-18T05:28:30;95223.00;;;7.16;69.12
1472;BME280;963;42.644;23.336;2022-12-18T05:30:58;95223.94;;;7.12;69.13
1472;BME280;963;42.644;23.336;2022-12-18T05:33:25;95252.09;;;7.06;69.87
1472;BME280;963;42.644;23.336;2022-12-18T05:35:56;95254.22;;;7.04;69.74
1472;BME280;963;42.644;23.336;2022-12-18T05:38:23;95238.38;;;6.92;70.19
1472;BME280;963;42.644;23.336;2022-12-18T05:40:50;95243.31;;;7.11;69.85
1472;BME280;963;42.644;23.336;2022-12-18T05:43:16;95243.59;;;7.01;70.56
1472;BME280;963;42.644;23.336;2022-12-18T05:45:42;95256.41;;;7.11;69.50
1472;BME280;963;42.644;23.336;2022-12-18T05:48:08;95249.78;;;7.13;69.67
1472;BME280;963;42.644;23.336;2022-12-18T05:50:38;95264.09;;;7.16;69.53
1472;BME280;963;42.644;23.336;2022-12-18T05:53:05;95260.72;;;7.15;68.19
1472;BME280;963;42.644;23.336;2022-12-18T05:55:35;95234.25;;;7.08;68.53
1472;BME280;963;42.644;23.336;2022-12-18T05:58:01;95251.16;;;7.11;68.21
1472;BME280;963;42.644;23.336;2022-12-18T06:00:27;95252.88;;;7.07;68.26
1472;BME280;963;42.644;23.336;2022-12-18T06:02:52;95255.16;;;7.08;68.17
1472;BME280;963;42.644;23.336;2022-12-18T06:05:17;95242.56;;;7.10;68.75
1472;BME280;963;42.644;23.336;2022-12-18T06:07:43;95265.19;;;7.15;68.08
1472;BME280;963;42.644;23.336;2022-12-18T06:10:08;95260.09;;;7.18;68.51
1472;BME280;963;42.644;23.336;2022-12-18T06:12:34;95268.88;;;7.22;68.12
1472;BME280;963;42.644;23.336;2022-12-18T06:15:00;95260.25;;;7.13;68.45
1472;BME280;963;42.644;23.336;2022-12-18T06:17:34;95262.88;;;7.13;69.00
1472;BME280;963;42.644;23.336;2022-12-18T06:19:59;95282.56;;;7.19;67.91
1472;BME280;963;42.644;23.336;2022-12-18T06:22:26;95274.41;;;7.12;68.62
1472;BME280;963;42.644;23.336;2022-12-18T06:24:52;95281.78;;;7.10;67.95
1472;BME280;963;42.644;23.336;2022-12-18T06:27:17;95283.03;;;7.13;68.08
1472;BME280;963;42.644;23.336;2022-12-18T06:29:43;95277.78;;;7.13;69.07
1472;BME280;963;42.644;23.336;2022-12-18T06:32:08;95278.25;;;7.15;68.11
1472;BME280;963;42.644;23.336;2022-12-18T06:34:36;95281.63;;;7.15;68.33
1472;BME280;963;42.644;23.336;2022-12-18T06:37:02;95282.22;;;7.04;68.20
1472;BME280;963;42.644;23.336;2022-12-18T06:39:27;95309.50;;;7.20;68.37
1472;BME280;963;42.644;23.336;2022-12-18T06:41:53;95296.09;;;7.13;68.68
1472;BME280;963;42.644;23.336;2022-12-18T06:44:18;95306.25;;;7.14;68.05
1472;BME280;963;42.644;23.336;2022-12-18T06:46:44;95301.81;;;7.15;67.80
1472;BME280;963;42.644;23.336;2022-12-18T06:49:10;95305.50;;;7.14;67.89
1472;BME280;963;42.644;23.336;2022-12-18T06:51:35;95324.41;;;7.11;68.53
1472;BME280;963;42.644;23.336;2022-12-18T06:54:01;95308.56;;;7.07;67.49
1472;BME280;963;42.644;23.336;2022-12-18T06:56:27;95321.63;;;7.07;66.94
1472;BME280;963;42.644;23.336;2022-12-18T06:58:53;95316.06;;;7.00;67.78
1472;BME280;963;42.644;23.336;2022-12-18T07:01:18;95319.19;;;7.11;67.36
1472;BME280;963;42.644;23.336;2022-12-18T07:03:44;95318.53;;;7.05;67.05
1472;BME280;963;42.644;23.336;2022-12-18T07:06:15;95314.25;;;7.09;66.58
1472;BME280;963;42.644;23.336;2022-12-18T07:08:41;95327.66;;;7.08;66.44
1472;BME280;963;42.644;23.336;2022-12-18T07:11:07;95342.38;;;7.04;66.85
1472;BME280;963;42.644;23.336;2022-12-18T07:13:32;95329.50;;;7.07;66.80
1472;BME280;963;42.644;23.336;2022-12-18T07:16:08;95317.19;;;7.16;66.10
1472;BME280;963;42.644;23.336;2022-12-18T07:18:34;95325.81;;;7.08;66.27
1472;BME280;963;42.644;23.336;2022-12-18T07:21:07;95312.88;;;7.20;65.74
1472;BME280;963;42.644;23.336;2022-12-18T07:23:34;95337.81;;;7.27;65.30
1472;BME280;963;42.644;23.336;2022-12-18T07:26:08;95333.81;;;7.12;66.19
1472;BME280;963;42.644;23.336;2022-12-18T07:28:35;95337.16;;;7.04;66.17
1472;BME280;963;42.644;23.336;2022-12-18T07:31:10;95342.56;;;7.07;65.69
1472;BME280;963;42.644;23.336;2022-12-18T07:33:37;95363.34;;;7.12;65.62
1472;BME280;963;42.644;23.336;2022-12-18T07:36:04;95368.91;;;7.19;65.41
1472;BME280;963;42.644;23.336;2022-12-18T07:38:30;95346.75;;;7.26;65.09
1472;BME280;963;42.644;23.336;2022-12-18T07:41:03;95370.31;;;7.26;64.88
1472;BME280;963;42.644;23.336;2022-12-18T07:43:29;95346.97;;;6.98;65.96
1472;BME280;963;42.644;23.336;2022-12-18T07:45:54;95361.66;;;7.16;65.92
1472;BME280;963;42.644;23.336;2022-12-18T07:48:19;95353.69;;;7.21;65.71
1472;BME280;963;42.644;23.336;2022-12-18T07:50:45;95357.69;;;7.28;65.23
1472;BME280;963;42.644;23.336;2022-12-18T07:53:10;95361.06;;;7.19;65.56
1472;BME280;963;42.644;23.336;2022-12-18T07:55:36;95377.69;;;7.24;65.12
1472;BME280;963;42.644;23.336;2022-12-18T07:58:02;95379.84;;;7.21;64.97
1472;BME280;963;42.644;23.336;2022-12-18T08:00:28;95369.38;;;7.21;64.99
1472;BME280;963;42.644;23.336;2022-12-18T08:02:54;95376.75;;;7.19;64.90
1472;BME280;963;42.644;23.336;2022-12-18T08:05:19;95377.22;;;7.21;65.05
1472;BME280;963;42.644;23.336;2022-12-18T08:07:46;95381.22;;;7.28;64.28
1472;BME280;963;42.644;23.336;2022-12-18T08:10:12;95394.44;;;7.14;65.17
1472;BME280;963;42.644;23.336;2022-12-18T08:12:37;95404.19;;;7.31;64.65
1472;BME280;963;42.644;23.336;2022-12-18T08:15:03;95394.47;;;7.22;64.28
1472;BME280;963;42.644;23.336;2022-12-18T08:17:28;95395.69;;;7.16;64.50
1472;BME280;963;42.644;23.336;2022-12-18T08:19:54;95394.44;;;7.14;64.54
1472;BME280;963;42.644;23.336;2022-12-18T08:22:19;95419.84;;;7.13;64.89
1472;BME280;963;42.644;23.336;2022-12-18T08:24:44;95417.16;;;7.05;64.61
1472;BME280;963;42.644;23.336;2022-12-18T08:27:10;95417.00;;;7.01;64.92
1472;BME280;963;42.644;23.336;2022-12-18T08:29:35;95423.09;;;6.88;65.07
1472;BME280;963;42.644;23.336;2022-12-18T08:32:01;95419.41;;;6.89;65.22
1472;BME280;963;42.644;23.336;2022-12-18T08:34:26;95418.81;;;6.92;65.13
1472;BME280;963;42.644;23.336;2022-12-18T08:36:51;95427.59;;;6.96;64.84
1472;BME280;963;42.644;23.336;2022-12-18T08:39:17;95427.72;;;6.91;65.06
1472;BME280;963;42.644;23.336;2022-12-18T08:41:42;95439.47;;;7.02;64.99
1472;BME280;963;42.644;23.336;2022-12-18T08:44:28;95434.53;;;7.01;65.54
1472;BME280;963;42.644;23.336;2022-12-18T08:47:03;95433.63;;;7.05;64.93
1472;BME280;963;42.644;23.336;2022-12-18T08:49:28;95428.41;;;7.05;64.82
1472;BME280;963;42.644;23.336;2022-12-18T08:51:55;95424.72;;;7.06;65.26
1472;BME280;963;42.644;23.336;2022-12-18T08:54:23;95432.09;;;7.04;64.75
1472;BME280;963;42.644;23.336;2022-12-18T08:56:48;95441.84;;;7.12;64.51
1472;BME280;963;42.644;23.336;2022-12-18T08:59:15;95428.75;;;7.12;65.30
1472;BME280;963;42.644;23.336;2022-12-18T09:01:41;95428.41;;;7.05;65.14
1472;BME280;963;42.644;23.336;2022-12-18T09:04:08;95431.84;;;7.14;64.63
1472;BME280;963;42.644;23.336;2022-12-18T09:06:34;95427.38;;;7.15;65.09
1472;BME280;963;42.644;23.336;2022-12-18T09:08:59;95426.28;;;7.07;65.44
1472;BME280;963;42.644;23.336;2022-12-18T09:11:26;95426.28;;;7.07;65.11
1472;BME280;963;42.644;23.336;2022-12-18T09:13:53;95420.06;;;7.03;65.41
1472;BME280;963;42.644;23.336;2022-12-18T09:16:20;95419.28;;;6.94;65.42
1472;BME280;963;42.644;23.336;2022-12-18T09:18:46;95430.53;;;7.03;65.68
1472;BME280;963;42.644;23.336;2022-12-18T09:21:14;95431.19;;;7.09;65.25
1472;BME280;963;42.644;23.336;2022-12-18T09:23:40;95428.75;;;7.12;65.50
1472;BME280;963;42.644;23.336;2022-12-18T09:26:05;95425.38;;;7.20;65.17
1472;BME280;963;42.644;23.336;2022-12-18T09:28:31;95428.16;;;7.15;64.82
1472;BME280;963;42.644;23.336;2022-12-18T09:30:57;95435.53;;;7.13;65.16
1472;BME280;963;42.644;23.336;2022-12-18T09:33:22;95418.31;;;7.21;64.20
1472;BME280;963;42.644;23.336;2022-12-18T09:35:47;95427.69;;;7.13;64.60
1472;BME280;963;42.644;23.336;2022-12-18T09:38:16;95449.38;;;7.14;64.15
1472;BME280;963;42.644;23.336;2022-12-18T09:43:16;95430.03;;;7.24;64.21
1472;BME280;963;42.644;23.336;2022-12-18T09:45:47;95425.72;;;7.28;63.34
1472;BME280;963;42.644;23.336;2022-12-18T09:48:36;95413.72;;;7.27;62.71
1472;BME280;963;42.644;23.336;2022-12-18T09:51:43;95429.72;;;7.34;62.66
1472;BME280;963;42.644;23.336;2022-12-18T09:54:21;95443.28;;;7.36;62.73
1472;BME280;963;42.644;23.336;2022-12-18T09:56:49;95422.97;;;7.41;62.62
1472;BME280;963;42.644;23.336;2022-12-18T09:59:22;95417.44;;;7.43;63.16
1472;BME280;963;42.644;23.336;2022-12-18T10:01:49;95423.94;;;7.45;62.67
1472;BME280;963;42.644;23.336;2022-12-18T10:04:14;95426.09;;;7.52;63.47
1472;BME280;963;42.644;23.336;2022-12-18T10:09:24;95421.19;;;7.59;62.28
1472;BME280;963;42.644;23.336;2022-12-18T10:12:08;95422.88;;;7.46;62.73
1472;BME280;963;42.644;23.336;2022-12-18T10:19:59;95424.09;;;7.49;61.35
1472;BME280;963;42.644;23.336;2022-12-18T10:25:36;95432.88;;;7.53;61.08
1472;BME280;963;42.644;23.336;2022-12-18T10:28:10;95423.63;;;7.47;61.97
1472;BME280;963;42.644;23.336;2022-12-18T10:30:38;95430.25;;;7.44;61.42
1472;BME280;963;42.644;23.336;2022-12-18T10:33:04;95428.88;;;7.47;60.16
1472;BME280;963;42.644;23.336;2022-12-18T10:35:30;95430.19;;;7.36;60.56
1472;BME280;963;42.644;23.336;2022-12-18T10:40:29;95435.28;;;7.41;60.53
1472;BME280;963;42.644;23.336;2022-12-18T10:43:05;95426.03;;;7.35;59.97
1472;BME280;963;42.644;23.336;2022-12-18T10:45:35;95424.81;;;7.41;60.78
1472;BME280;963;42.644;23.336;2022-12-18T10:48:01;95419.88;;;7.31;61.15
1472;BME280;963;42.644;23.336;2022-12-18T10:50:34;95428.25;;;7.50;60.73
1472;BME280;963;42.644;23.336;2022-12-18T10:53:03;95426.25;;;7.56;59.75
1472;BME280;963;42.644;23.336;2022-12-18T10:55:35;95430.19;;;7.27;59.83
1472;BME280;963;42.644;23.336;2022-12-18T11:01:21;95416.50;;;7.39;60.02
1472;BME280;963;42.644;23.336;2022-12-18T11:04:00;95427.44;;;7.41;60.69
1472;BME280;963;42.644;23.336;2022-12-18T11:06:26;95413.94;;;7.47;59.81
1472;BME280;963;42.644;23.336;2022-12-18T11:09:03;95416.09;;;7.45;60.17
1472;BME280;963;42.644;23.336;2022-12-18T11:11:29;95422.78;;;7.20;59.36
1472;BME280;963;42.644;23.336;2022-12-18T11:14:16;95420.34;;;7.33;58.64
1472;BME280;963;42.644;23.336;2022-12-18T11:16:45;95425.72;;;7.28;57.79
1472;BME280;963;42.644;23.336;2022-12-18T11:19:37;95417.06;;;7.18;58.32
1472;BME280;963;42.644;23.336;2022-12-18T11:22:28;95422.19;;;7.32;57.57
1472;BME280;963;42.644;23.336;2022-12-18T11:25:00;95418.47;;;7.25;57.67
1472;BME280;963;42.644;23.336;2022-12-18T11:27:26;95418.66;;;7.37;57.21
1472;BME280;963;42.644;23.336;2022-12-18T11:30:15;95415.31;;;7.45;57.64
1472;BME280;963;42.644;23.336;2022-12-18T11:32:47;95446.22;;;7.34;57.79
1472;BME280;963;42.644;23.336;2022-12-18T11:35:43;95422.97;;;7.33;57.66
1472;BME280;963;42.644;23.336;2022-12-18T11:38:23;95425.56;;;7.33;57.34
1472;BME280;963;42.644;23.336;2022-12-18T11:41:01;95432.22;;;7.39;57.54
1472;BME280;963;42.644;23.336;2022-12-18T11:46:08;95430.75;;;7.15;57.22
1472;BME280;963;42.644;23.336;2022-12-18T11:48:44;95432.16;;;7.21;56.77
1472;BME280;963;42.644;23.336;2022-12-18T11:51:19;95434.03;;;7.30;56.32
1472;BME280;963;42.644;23.336;2022-12-18T11:53:46;95441.41;;;7.28;56.20
1472;BME280;963;42.644;23.336;2022-12-18T11:56:31;95432.94;;;7.22;56.25
1472;BME280;963;42.644;23.336;2022-12-18T12:10:20;95439.25;;;6.90;57.90
1472;BME280;963;42.644;23.336;2022-12-18T12:13:28;95429.00;;;7.02;57.54
1472;BME280;963;42.644;23.336;2022-12-18T12:27:03;95431.22;;;7.17;58.23
1472;BME280;963;42.644;23.336;2022-12-18T12:32:31;95434.66;;;7.27;58.42
1472;BME280;963;42.644;23.336;2022-12-18T12:40:19;95452.97;;;7.27;58.61
1472;BME280;963;42.644;23.336;2022-12-18T12:42:54;95434.81;;;7.30;58.13
1472;BME280;963;42.644;23.336;2022-12-18T12:45:49;95429.72;;;7.34;58.09
1472;BME280;963;42.644;23.336;2022-12-18T12:48:43;95437.13;;;7.32;58.35
1472;BME280;963;42.644;23.336;2022-12-18T12:51:25;95441.75;;;7.35;58.78
1472;BME280;963;42.644;23.336;2022-12-18T12:53:52;95450.44;;;7.13;58.48
1472;BME280;963;42.644;23.336;2022-12-18T12:56:20;95463.91;;;7.29;59.04
1472;BME280;963;42.644;23.336;2022-12-18T13:06:33;95469.59;;;7.31;59.38
1472;BME280;963;42.644;23.336;2022-12-18T13:09:02;95473.13;;;7.26;58.98
1472;BME280;963;42.644;23.336;2022-12-18T13:11:36;95464.38;;;7.31;59.56
1472;BME280;963;42.644;23.336;2022-12-18T13:14:38;95482.34;;;7.24;59.98
1472;BME280;963;42.644;23.336;2022-12-18T13:19:49;95467.41;;;7.24;58.70
1472;BME280;963;42.644;23.336;2022-12-18T13:22:45;95472.63;;;7.15;60.06
1472;BME280;963;42.644;23.336;2022-12-18T13:28:07;95475.91;;;7.30;59.20
1472;BME280;963;42.644;23.336;2022-12-18T13:35:51;95488.69;;;7.31;59.22
1472;BME280;963;42.644;23.336;2022-12-18T13:41:42;95497.03;;;7.42;59.20
1472;BME280;963;42.644;23.336;2022-12-18T13:43:47;95484.81;;;7.29;59.56
1472;BME280;963;42.644;23.336;2022-12-18T13:49:05;95497.47;;;7.35;59.00
1472;BME280;963;42.644;23.336;2022-12-18T13:51:48;95496.56;;;7.40;58.66
1472;BME280;963;42.644;23.336;2022-12-18T13:56:58;95529.19;;;7.34;59.06
1472;BME280;963;42.644;23.336;2022-12-18T13:59:25;95517.34;;;7.36;59.67
1472;BME280;963;42.644;23.336;2022-12-18T14:04:31;95505.75;;;7.29;59.69
1472;BME280;963;42.644;23.336;2022-12-18T14:07:14;95514.84;;;7.31;59.41
1472;BME280;963;42.644;23.336;2022-12-18T14:09:43;95511.34;;;7.36;59.38
1472;BME280;963;42.644;23.336;2022-12-18T14:12:40;95503.53;;;7.13;59.82
1472;BME280;963;42.644;23.336;2022-12-18T14:17:51;95526.69;;;7.29;59.78
1472;BME280;963;42.644;23.336;2022-12-18T14:20:17;95531.94;;;7.29;59.77
1472;BME280;963;42.644;23.336;2022-12-18T14:22:48;95527.00;;;7.27;59.39
1472;BME280;963;42.644;23.336;2022-12-18T14:25:18;95521.78;;;7.27;58.10
1472;BME280;963;42.644;23.336;2022-12-18T14:27:50;95527.56;;;7.15;57.43
1472;BME280;963;42.644;23.336;2022-12-18T14:30:28;95540.03;;;7.18;57.14
1472;BME280;963;42.644;23.336;2022-12-18T14:33:11;95526.34;;;7.21;57.23
1472;BME280;963;42.644;23.336;2022-12-18T14:36:03;95525.75;;;7.25;57.50
1472;BME280;963;42.644;23.336;2022-12-18T14:43:25;95534.84;;;7.27;57.38
1472;BME280;963;42.644;23.336;2022-12-18T14:45:52;95527.91;;;7.22;58.24
1472;BME280;963;42.644;23.336;2022-12-18T14:51:00;95528.34;;;7.16;57.25
1472;BME280;963;42.644;23.336;2022-12-18T14:53:39;95526.50;;;7.16;57.09
1472;BME280;963;42.644;23.336;2022-12-18T14:56:29;95532.78;;;7.15;56.93
1472;BME280;963;42.644;23.336;2022-12-18T14:59:03;95533.88;;;7.14;57.04
1472;BME280;963;42.644;23.336;2022-12-18T15:03:55;95537.84;;;7.12;56.24
1472;BME280;963;42.644;23.336;2022-12-18T15:08:51;95534.81;;;6.96;56.36
1472;BME280;963;42.644;23.336;2022-12-18T15:13:57;95541.44;;;6.94;56.71
1472;BME280;963;42.644;23.336;2022-12-18T15:16:23;95540.66;;;6.93;56.22
1472;BME280;963;42.644;23.336;2022-12-18T15:18:49;95557.28;;;6.97;56.51
1472;BME280;963;42.644;23.336;2022-12-18T15:21:19;95550.53;;;6.96;56.78
1472;BME280;963;42.644;23.336;2022-12-18T15:23:48;95559.09;;;6.88;56.56
1472;BME280;963;42.644;23.336;2022-12-18T15:26:16;95580.19;;;6.92;56.73
1472;BME280;963;42.644;23.336;2022-12-18T15:28:53;95563.13;;;6.94;55.92
1472;BME280;963;42.644;23.336;2022-12-18T15:31:33;95556.59;;;6.83;56.64
1472;BME280;963;42.644;23.336;2022-12-18T15:36:33;95554.94;;;6.87;55.80
1472;BME280;963;42.644;23.336;2022-12-18T15:39:02;95567.41;;;6.90;55.67
1472;BME280;963;42.644;23.336;2022-12-18T15:41:33;95572.63;;;6.90;54.85
1472;BME280;963;42.644;23.336;2022-12-18T15:43:59;95577.56;;;6.92;55.21
1472;BME280;963;42.644;23.336;2022-12-18T15:46:25;95576.91;;;6.86;54.84
1472;BME280;963;42.644;23.336;2022-12-18T15:48:53;95571.69;;;6.86;55.19
1472;BME280;963;42.644;23.336;2022-12-18T15:51:29;95587.72;;;6.93;54.68
1472;BME280;963;42.644;23.336;2022-12-18T15:53:58;95605.97;;;6.84;54.48
1472;BME280;963;42.644;23.336;2022-12-18T15:56:24;95590.09;;;6.81;55.27
1472;BME280;963;42.644;23.336;2022-12-18T15:59:11;95597.47;;;6.79;55.11
1472;BME280;963;42.644;23.336;2022-12-18T16:01:37;95596.41;;;6.80;54.41